<ZCZC CAEMTRCHS
TTAA00 KCHS 102156
METAR KCHS 102156Z 22015KT 6SM TS HZ FEW015 SCT037 OVC085 24/22
A2953 RMK A02 TSB50 SLP000 OCNL LGTIC N TS W-N MOVG SE T02440217 $

<ZCZC CAEMTRCHS
TTAA00 KCHS 102056
METAR KCHS 102056Z 19010KT 6SM HZ FEW021 26/22 A2953 RMK A02 SLP000
60000 T02560217 58034 $

<ZCZC CAEMTRCHS
TTAA00 KCHS 102048
SPECI KCHS 102048Z 21010KT 6SM HZ SCT021 26/22 A2954 RMK A02 $

<ZCZC CAEMTRCHS
TTAA00 KCHS 102038
SPECI KCHS 102038Z 20011KT 7SM BKN021 26/22 A2954 RMK A02 $

<ZCZC CAEMTRCHS
TTAA00 KCHS 101956
METAR KCHS 101956Z 19008G15KT 6SM HZ BKN017 OVC024 26/22 A2956 RMK
A02 SLP010 T02610222 $

<ZCZC CAEMTRCHS
TTAA00 KCHS 101856
METAR KCHS 101856Z 18012KT 6SM HZ FEW015 SCT019 BKN029 25/22 A2961
RMK A02 RAB18E27 SLP024 P0000 T025000217 $

<ZCZC CAEMTRCHS
TTAA00 KCHS 101838
SPECI KCHS 101838Z 20012KT 6SM HZ FEW024 SCT032 25/21 A2962 RMK A02
RAB18E27 P0000 $